Time;durP1;ratioP1;P1;durP2;ratioP2;P2;SDS_P1;SDS_P2;PMS_P1;PMS_P2;Temp;Humidity;BMP_temperature;BMP_pressure;BME280_temperature;BME280_humidity;BME280_pressure;Samples;Min_cycle;Max_cycle;Signal;HPM_P1;HPM_P2
2022/08/26 00:01:20;;;;;;;30.45;4.13;;;22.10;99.90;;;;;;5067092;28;20040;-79
2022/08/26 00:03:45;;;;;;;24.55;3.55;;;22.10;99.90;;;;;;5066721;28;20141;-80
2022/08/26 00:06:12;;;;;;;23.80;3.88;;;22.10;99.90;;;;;;5067654;28;20029;-79
2022/08/26 00:08:38;;;;;;;26.65;4.78;;;22.10;99.90;;;;;;5065733;28;20039;-80
2022/08/26 00:11:04;;;;;;;33.45;5.30;;;22.10;99.90;;;;;;5065960;28;20020;-80
2022/08/26 00:13:30;;;;;;;18.60;3.58;;;22.10;99.90;;;;;;5065828;28;20032;-80
2022/08/26 00:15:55;;;;;;;34.97;4.85;;;22.10;99.90;;;;;;5067490;28;20389;-79
2022/08/26 00:18:21;;;;;;;25.17;4.85;;;22.10;99.90;;;;;;5083261;28;20039;-79
2022/08/26 00:20:47;;;;;;;23.95;4.00;;;22.10;99.90;;;;;;5085480;28;20119;-80
2022/08/26 00:23:13;;;;;;;34.35;4.70;;;22.10;99.90;;;;;;5087411;28;20036;-80
2022/08/26 00:25:38;;;;;;;33.08;3.65;;;22.10;99.90;;;;;;5073856;28;20020;-80
2022/08/26 00:28:05;;;;;;;22.80;4.15;;;22.10;99.90;;;;;;5065854;28;20029;-81
2022/08/26 00:30:33;;;;;;;17.45;3.13;;;22.10;99.90;;;;;;5065250;28;20024;-80
2022/08/26 00:32:59;;;;;;;17.35;3.88;;;22.10;99.90;;;;;;5065514;28;20049;-80
2022/08/26 00:35:25;;;;;;;15.25;4.60;;;22.00;99.90;;;;;;5066934;28;20056;-79
2022/08/26 00:37:52;;;;;;;16.75;3.88;;;22.00;99.90;;;;;;5064979;28;20124;-80
2022/08/26 00:40:27;;;;;;;23.73;3.17;;;22.10;99.90;;;;;;5065407;28;20440;-79
2022/08/26 00:42:53;;;;;;;15.13;3.55;;;22.00;99.90;;;;;;5065432;28;20149;-80
2022/08/26 00:45:18;;;;;;;22.58;4.15;;;22.00;99.90;;;;;;5066021;28;20053;-79
2022/08/26 00:47:48;;;;;;;20.33;3.40;;;22.00;99.90;;;;;;5066924;28;20512;-79
2022/08/26 00:50:20;;;;;;;16.00;3.72;;;22.00;99.90;;;;;;5065042;28;20082;-80
2022/08/26 00:52:46;;;;;;;27.08;5.05;;;22.00;99.90;;;;;;5064916;28;20024;-79
2022/08/26 00:55:17;;;;;;;17.27;4.13;;;22.00;99.90;;;;;;5066965;28;20035;-79
2022/08/26 00:57:44;;;;;;;18.17;3.92;;;21.90;99.90;;;;;;5064630;28;20481;-79
2022/08/26 01:00:17;;;;;;;12.98;3.60;;;21.90;99.90;;;;;;5066427;28;20127;-80
2022/08/26 01:02:46;;;;;;;13.13;3.40;;;21.90;99.90;;;;;;5065408;28;20039;-79
2022/08/26 01:05:11;;;;;;;32.53;4.15;;;21.90;99.90;;;;;;5065246;28;20124;-79
2022/08/26 01:07:38;;;;;;;17.55;3.03;;;21.80;99.90;;;;;;5066540;28;20553;-79
2022/08/26 01:10:09;;;;;;;20.95;2.97;;;21.80;99.90;;;;;;5065006;28;20028;-80
2022/08/26 01:12:39;;;;;;;18.60;4.50;;;21.80;99.90;;;;;;5065327;28;20024;-79
2022/08/26 01:15:07;;;;;;;14.13;3.60;;;21.80;99.90;;;;;;5064717;28;20032;-80
2022/08/26 01:17:33;;;;;;;35.97;4.28;;;21.70;99.90;;;;;;5065351;28;20040;-79
2022/08/26 01:20:11;;;;;;;20.50;3.30;;;21.70;99.90;;;;;;5065968;28;20082;-79
2022/08/26 01:22:58;;;;;;;32.00;4.03;;;21.70;99.90;;;;;;5065442;28;20067;-79
2022/08/26 01:25:28;;;;;;;17.77;4.82;;;21.60;99.90;;;;;;5064937;28;20058;-79
2022/08/26 01:27:56;;;;;;;31.30;3.70;;;21.60;99.90;;;;;;5066750;28;20467;-79
2022/08/26 01:30:24;;;;;;;21.95;3.65;;;21.60;99.90;;;;;;5064738;28;20021;-81
2022/08/26 01:32:50;;;;;;;12.40;3.22;;;21.50;99.90;;;;;;5066191;28;20052;-81
2022/08/26 01:35:17;;;;;;;15.23;3.42;;;21.50;99.90;;;;;;5065090;28;20512;-79
2022/08/26 01:37:43;;;;;;;11.80;2.90;;;21.50;99.90;;;;;;5066081;28;20048;-80
2022/08/26 01:40:15;;;;;;;18.75;2.40;;;21.50;99.90;;;;;;5066380;28;20095;-80
2022/08/26 01:42:41;;;;;;;23.67;3.03;;;21.50;99.90;;;;;;5065317;28;20020;-80
2022/08/26 01:45:14;;;;;;;19.92;3.53;;;21.50;99.90;;;;;;5064573;28;20062;-80
2022/08/26 01:47:41;;;;;;;22.52;3.85;;;21.50;99.90;;;;;;5066381;28;20028;-80
2022/08/26 01:50:12;;;;;;;16.05;4.13;;;21.50;99.90;;;;;;5064546;28;20313;-79
2022/08/26 01:52:40;;;;;;;14.75;3.00;;;21.40;99.90;;;;;;5064735;28;20055;-80
2022/08/26 01:55:07;;;;;;;13.05;3.70;;;21.40;99.90;;;;;;5064714;28;20516;-80
2022/08/26 01:57:34;;;;;;;16.50;2.92;;;21.40;99.90;;;;;;5064973;28;20117;-79
2022/08/26 02:00:05;;;;;;;22.45;3.78;;;21.30;99.90;;;;;;5064988;28;20028;-79
2022/08/26 02:02:31;;;;;;;17.50;3.70;;;21.30;99.90;;;;;;5064318;28;20493;-79
2022/08/26 02:05:01;;;;;;;16.70;3.10;;;21.30;99.90;;;;;;5064726;28;20033;-81
2022/08/26 02:07:27;;;;;;;15.23;3.15;;;21.30;99.90;;;;;;5064296;28;20493;-80
2022/08/26 02:09:53;;;;;;;17.73;3.28;;;21.20;99.90;;;;;;5068317;28;20025;-79
2022/08/26 02:12:19;;;;;;;17.05;3.97;;;21.20;99.90;;;;;;5068513;28;20023;-79
2022/08/26 02:14:52;;;;;;;13.70;2.78;;;21.20;99.90;;;;;;5069412;28;20090;-80
2022/08/26 02:17:22;;;;;;;11.50;3.50;;;21.20;99.90;;;;;;5068070;28;20040;-80
2022/08/26 02:19:49;;;;;;;14.02;2.97;;;21.20;99.90;;;;;;5068143;28;20409;-80
2022/08/26 02:22:19;;;;;;;15.93;3.55;;;21.20;99.90;;;;;;5068023;28;20558;-80
2022/08/26 02:24:54;;;;;;;15.82;3.42;;;21.20;99.90;;;;;;5067982;28;20063;-80
2022/08/26 02:27:38;;;;;;;9.40;2.28;;;21.20;99.90;;;;;;5067929;28;20059;-79
2022/08/26 02:30:31;;;;;;;17.60;2.78;;;21.20;99.90;;;;;;5068196;28;20546;-80
2022/08/26 02:33:00;;;;;;;19.52;2.75;;;21.20;99.90;;;;;;5064948;28;20265;-79
2022/08/26 02:35:26;;;;;;;23.88;3.65;;;21.20;99.90;;;;;;5067763;28;20033;-80
2022/08/26 02:37:52;;;;;;;11.20;3.00;;;21.10;99.90;;;;;;5067073;28;20040;-80
2022/08/26 02:40:22;;;;;;;23.65;3.20;;;21.10;99.90;;;;;;5068235;28;20049;-79
2022/08/26 02:42:48;;;;;;;16.52;2.83;;;21.10;99.90;;;;;;5067961;28;20119;-80
2022/08/26 02:45:14;;;;;;;23.52;4.50;;;21.10;99.90;;;;;;5067328;28;20032;-80
2022/08/26 02:47:39;;;;;;;21.20;4.03;;;21.10;99.90;;;;;;5068992;28;20800;-80
2022/08/26 02:50:06;;;;;;;17.48;3.35;;;21.10;99.90;;;;;;5068001;28;20025;-79
2022/08/26 02:52:31;;;;;;;22.30;3.22;;;21.10;99.90;;;;;;5066798;28;20424;-80
2022/08/26 02:54:57;;;;;;;13.43;2.83;;;21.10;99.90;;;;;;5067212;28;20029;-80
2022/08/26 02:57:23;;;;;;;15.90;2.80;;;21.10;99.90;;;;;;5068948;28;20494;-80
2022/08/26 02:59:49;;;;;;;13.52;3.75;;;21.10;99.90;;;;;;5067458;28;20029;-80
2022/08/26 03:02:16;;;;;;;17.05;3.90;;;21.10;99.90;;;;;;5068442;28;20025;-80
2022/08/26 03:04:42;;;;;;;14.63;2.75;;;21.00;99.90;;;;;;5067021;28;20098;-79
2022/08/26 03:07:08;;;;;;;10.05;2.80;;;21.00;99.90;;;;;;5068127;28;20124;-80
2022/08/26 03:09:33;;;;;;;16.20;2.88;;;21.00;99.90;;;;;;5068557;28;20103;-81
2022/08/26 03:11:59;;;;;;;16.90;4.18;;;20.90;99.90;;;;;;5067385;28;20020;-82
2022/08/26 03:14:25;;;;;;;17.00;3.08;;;20.90;99.90;;;;;;5067076;28;20401;-82
2022/08/26 03:16:53;;;;;;;18.88;3.00;;;20.90;99.90;;;;;;5066408;28;20037;-81
2022/08/26 03:19:21;;;;;;;22.15;3.08;;;20.80;99.90;;;;;;5066163;28;20071;-82
2022/08/26 03:21:47;;;;;;;14.82;3.28;;;20.80;99.90;;;;;;5066186;28;20040;-83
2022/08/26 03:24:13;;;;;;;10.57;3.17;;;20.80;99.90;;;;;;5067072;28;20020;-83
2022/08/26 03:26:38;;;;;;;8.68;3.00;;;20.80;99.90;;;;;;5069753;28;20028;-82
2022/08/26 03:31:49;;;;;;;14.15;3.00;;;20.80;99.90;;;;;;5068491;28;20055;-82
2022/08/26 03:34:17;;;;;;;13.88;2.67;;;20.80;99.90;;;;;;5066441;28;20024;-81
2022/08/26 03:36:43;;;;;;;17.10;4.65;;;20.80;99.90;;;;;;5066460;28;20462;-82
2022/08/26 03:39:11;;;;;;;14.43;3.13;;;20.80;99.90;;;;;;5066537;28;20032;-83
2022/08/26 03:41:38;;;;;;;7.00;2.25;;;20.70;99.90;;;;;;5067638;28;20025;-81
2022/08/26 03:44:05;;;;;;;20.15;3.08;;;20.70;99.90;;;;;;5066651;28;20115;-82
2022/08/26 03:46:32;;;;;;;18.83;3.67;;;20.70;99.90;;;;;;5066287;28;20033;-82
2022/08/26 03:49:00;;;;;;;24.52;3.67;;;20.70;99.90;;;;;;5066653;28;20020;-82
2022/08/26 03:51:25;;;;;;;20.00;3.60;;;20.70;99.90;;;;;;5067274;28;20025;-82
2022/08/26 03:53:51;;;;;;;14.18;2.97;;;20.70;99.90;;;;;;5068100;28;20027;-81
2022/08/26 03:56:17;;;;;;;14.45;2.60;;;20.70;99.90;;;;;;5066325;28;20036;-81
2022/08/26 03:58:43;;;;;;;18.92;3.92;;;20.60;99.90;;;;;;5065958;28;20123;-82
2022/08/26 04:01:10;;;;;;;34.90;4.50;;;20.60;99.90;;;;;;5065567;28;20028;-82
2022/08/26 04:06:20;;;;;;;15.43;2.78;;;20.60;99.90;;;;;;5067371;28;20586;-82
2022/08/26 04:08:46;;;;;;;26.55;3.55;;;20.60;99.90;;;;;;5066996;28;20021;-82
2022/08/26 04:11:20;;;;;;;14.98;3.13;;;20.60;99.90;;;;;;5065945;28;20042;-82
2022/08/26 04:13:46;;;;;;;25.13;4.15;;;20.50;99.90;;;;;;5067345;28;20082;-82
2022/08/26 04:16:12;;;;;;;18.13;3.80;;;20.60;99.90;;;;;;5065821;28;20062;-82
2022/08/26 04:18:38;;;;;;;17.52;3.35;;;20.60;99.90;;;;;;5067033;28;20435;-82
2022/08/26 04:21:04;;;;;;;25.40;3.33;;;20.60;99.90;;;;;;5066805;28;20024;-82
2022/08/26 04:23:30;;;;;;;38.45;5.00;;;20.60;99.90;;;;;;5067234;28;20663;-82
2022/08/26 04:25:56;;;;;;;23.58;3.05;;;20.60;99.90;;;;;;5065728;28;20103;-82
2022/08/26 04:28:22;;;;;;;18.75;2.90;;;20.70;99.90;;;;;;5066515;28;20121;-82
2022/08/26 04:30:48;;;;;;;10.32;2.97;;;20.70;99.90;;;;;;5067023;28;20020;-82
2022/08/26 04:33:14;;;;;;;22.15;3.72;;;20.70;99.90;;;;;;5066763;28;20057;-82
2022/08/26 04:35:40;;;;;;;23.30;3.95;;;20.80;99.90;;;;;;5065528;28;20035;-82
2022/08/26 04:38:05;;;;;;;24.15;3.30;;;20.90;99.90;;;;;;5065576;28;20037;-82
2022/08/26 04:40:31;;;;;;;15.85;4.07;;;20.90;99.90;;;;;;5064272;28;20059;-81
2022/08/26 04:42:57;;;;;;;21.75;3.50;;;21.00;99.90;;;;;;5066565;28;20064;-82
2022/08/26 04:45:23;;;;;;;21.98;2.72;;;21.00;99.90;;;;;;5064742;28;20033;-81
2022/08/26 04:47:52;;;;;;;20.65;3.67;;;21.10;99.90;;;;;;5065537;28;20412;-81
2022/08/26 04:50:19;;;;;;;17.48;2.95;;;21.30;99.90;;;;;;5064937;28;20139;-81
2022/08/26 04:52:44;;;;;;;21.55;3.25;;;21.40;99.90;;;;;;5065441;28;20044;-81
2022/08/26 04:55:10;;;;;;;28.73;3.25;;;21.50;99.90;;;;;;5065455;28;20145;-81
2022/08/26 04:57:36;;;;;;;19.45;3.75;;;21.70;99.90;;;;;;5064738;28;20046;-82
2022/08/26 05:00:07;;;;;;;24.15;3.63;;;21.80;99.90;;;;;;5065251;28;20370;-81
2022/08/26 05:02:33;;;;;;;33.65;4.38;;;21.80;99.90;;;;;;5064772;28;20042;-81
2022/08/26 05:04:58;;;;;;;23.13;4.45;;;22.00;99.90;;;;;;5064329;28;20025;-82
2022/08/26 05:07:24;;;;;;;14.13;2.78;;;22.10;99.90;;;;;;5066877;28;20060;-81
2022/08/26 05:09:50;;;;;;;15.43;2.92;;;22.30;99.90;;;;;;5066559;28;20477;-82
2022/08/26 05:12:16;;;;;;;19.13;3.20;;;22.60;99.90;;;;;;5064669;28;20633;-83
2022/08/26 05:14:41;;;;;;;16.35;3.78;;;22.90;99.90;;;;;;5066520;28;20021;-82
2022/08/26 05:17:08;;;;;;;29.25;3.55;;;23.30;99.90;;;;;;5064950;28;20041;-82
2022/08/26 05:19:34;;;;;;;24.50;5.03;;;23.60;99.90;;;;;;5066388;28;20021;-82
2022/08/26 05:22:00;;;;;;;15.55;3.22;;;23.80;99.90;;;;;;5065135;28;20029;-82
2022/08/26 05:24:25;;;;;;;24.02;3.10;;;24.00;99.90;;;;;;5066637;28;20025;-82
2022/08/26 05:26:51;;;;;;;20.98;3.45;;;24.10;99.90;;;;;;5064959;28;20063;-83
2022/08/26 05:29:17;;;;;;;19.83;2.78;;;24.20;99.90;;;;;;5055421;28;20064;-82
2022/08/26 05:31:43;;;;;;;14.40;3.05;;;24.40;99.90;;;;;;5046475;28;20083;-82
2022/08/26 05:34:08;;;;;;;15.38;3.65;;;24.70;99.90;;;;;;5052511;28;20033;-82
2022/08/26 05:36:35;;;;;;;12.70;3.05;;;25.00;99.90;;;;;;5064605;28;20564;-82
2022/08/26 05:39:03;;;;;;;17.30;3.10;;;25.30;99.90;;;;;;5064786;28;20500;-81
2022/08/26 05:41:33;;;;;;;36.00;5.63;;;25.60;99.90;;;;;;5066445;28;20445;-81
2022/08/26 05:44:00;;;;;;;40.47;4.15;;;26.00;99.90;;;;;;5066630;28;20561;-81
2022/08/26 05:46:26;;;;;;;25.77;4.78;;;26.30;99.90;;;;;;5068737;28;20028;-83
2022/08/26 05:48:53;;;;;;;19.33;3.05;;;26.70;99.90;;;;;;5069196;28;20028;-83
2022/08/26 05:51:20;;;;;;;17.63;3.28;;;27.00;99.90;;;;;;5068699;28;20488;-84
2022/08/26 05:53:46;;;;;;;22.52;4.55;;;27.30;99.90;;;;;;5067734;28;20120;-81
2022/08/26 05:56:12;;;;;;;19.30;4.43;;;27.70;99.90;;;;;;5068524;28;20021;-81
2022/08/26 05:58:40;;;;;;;16.70;3.55;;;28.20;99.30;;;;;;5068952;28;20044;-81
2022/08/26 06:01:19;;;;;;;30.08;4.88;;;28.60;98.40;;;;;;5067850;28;20024;-82
2022/08/26 06:03:47;;;;;;;26.98;3.00;;;29.10;97.40;;;;;;5067708;28;20527;-82
2022/08/26 06:06:24;;;;;;;12.25;3.10;;;29.50;94.90;;;;;;5069195;28;20392;-82
2022/08/26 06:08:51;;;;;;;22.00;3.65;;;30.00;93.20;;;;;;5068851;28;20098;-81
2022/08/26 06:11:20;;;;;;;12.05;3.33;;;30.60;90.80;;;;;;5069676;28;20016;-81
2022/08/26 06:13:46;;;;;;;19.20;3.88;;;30.80;86.70;;;;;;5069846;28;20056;-81
2022/08/26 06:16:19;;;;;;;27.63;3.17;;;31.00;81.30;;;;;;5069239;28;20027;-82
2022/08/26 06:18:46;;;;;;;15.05;3.13;;;31.70;76.60;;;;;;5069275;28;20046;-81
2022/08/26 06:21:17;;;;;;;28.10;3.28;;;32.00;75.20;;;;;;5068050;28;20106;-81
2022/08/26 06:26:29;;;;;;;14.68;3.70;;;32.80;71.20;;;;;;5068798;28;20055;-81
2022/08/26 06:28:55;;;;;;;21.10;3.08;;;33.10;68.50;;;;;;5067446;28;20071;-82
2022/08/26 06:31:22;;;;;;;18.30;3.63;;;33.30;68.10;;;;;;5065740;28;20056;-80
2022/08/26 06:33:49;;;;;;;19.58;2.67;;;33.50;67.60;;;;;;5068851;28;20521;-81
2022/08/26 06:36:23;;;;;;;25.58;4.10;;;33.60;65.20;;;;;;5067411;28;20330;-80
2022/08/26 06:38:51;;;;;;;17.23;3.78;;;33.60;64.10;;;;;;5067285;28;20040;-82
2022/08/26 06:41:19;;;;;;;20.40;5.22;;;33.70;65.80;;;;;;5069087;28;20099;-82
2022/08/26 06:43:46;;;;;;;24.38;3.75;;;34.00;64.80;;;;;;5067819;28;20027;-82
2022/08/26 06:46:15;;;;;;;17.50;3.95;;;33.90;65.00;;;;;;5068707;28;20016;-81
2022/08/26 06:48:40;;;;;;;12.95;3.17;;;34.00;61.40;;;;;;5067410;28;20027;-81
2022/08/26 06:51:08;;;;;;;16.08;3.30;;;34.00;61.70;;;;;;5067524;28;20409;-82
2022/08/26 06:53:35;;;;;;;16.17;3.92;;;33.90;61.30;;;;;;5067413;28;20032;-81
2022/08/26 06:56:03;;;;;;;22.83;3.58;;;33.80;59.90;;;;;;5067434;28;20028;-82
2022/08/26 06:58:29;;;;;;;17.45;3.33;;;33.60;60.00;;;;;;5067441;28;20123;-80
2022/08/26 07:00:56;;;;;;;22.13;2.97;;;33.90;59.50;;;;;;5067542;28;20108;-82
2022/08/26 07:03:21;;;;;;;17.95;3.63;;;33.80;58.80;;;;;;5067114;28;20033;-81
2022/08/26 07:05:48;;;;;;;11.25;3.47;;;34.00;57.40;;;;;;5066877;28;20028;-81
2022/08/26 07:08:14;;;;;;;13.18;2.75;;;34.00;57.70;;;;;;5066638;28;20036;-81
2022/08/26 07:10:41;;;;;;;15.18;2.72;;;34.20;56.20;;;;;;5068308;28;20025;-81
2022/08/26 07:13:07;;;;;;;20.00;2.78;;;34.20;55.70;;;;;;5066615;28;20032;-81
2022/08/26 07:15:34;;;;;;;9.75;2.47;;;34.40;53.70;;;;;;5067168;28;20108;-81
2022/08/26 07:18:00;;;;;;;15.48;2.75;;;34.20;53.40;;;;;;5066737;28;20040;-82
2022/08/26 07:20:26;;;;;;;12.35;3.13;;;34.40;53.90;;;;;;5067823;28;20561;-82
2022/08/26 07:22:52;;;;;;;11.38;3.17;;;34.40;53.90;;;;;;5066456;28;20068;-81
2022/08/26 07:25:18;;;;;;;11.07;2.92;;;34.70;51.90;;;;;;5065958;28;20029;-81
2022/08/26 07:27:44;;;;;;;12.77;3.08;;;34.80;50.80;;;;;;5067724;28;20636;-82
2022/08/26 07:30:10;;;;;;;17.17;3.13;;;34.70;50.30;;;;;;5067875;28;20107;-81
2022/08/26 07:32:36;;;;;;;12.15;2.97;;;34.80;50.40;;;;;;5067180;28;20044;-81
2022/08/26 07:35:03;;;;;;;17.77;3.25;;;34.80;51.20;;;;;;5068391;28;20029;-82
2022/08/26 07:37:29;;;;;;;23.88;3.08;;;35.30;49.80;;;;;;5066244;28;20041;-81
2022/08/26 07:39:54;;;;;;;33.67;3.58;;;35.70;48.60;;;;;;5066517;28;20090;-82
2022/08/26 07:42:20;;;;;;;22.17;3.25;;;35.80;49.30;;;;;;5079535;28;20031;-81
2022/08/26 07:44:46;;;;;;;13.07;2.78;;;36.10;49.60;;;;;;5075589;28;20020;-81
2022/08/26 07:47:13;;;;;;;21.15;2.85;;;36.40;47.10;;;;;;5073380;28;20035;-81
2022/08/26 07:49:38;;;;;;;12.65;2.47;;;36.30;47.20;;;;;;5067703;28;20029;-82
2022/08/26 07:52:05;;;;;;;18.50;3.20;;;36.70;46.30;;;;;;5066473;28;20062;-82
2022/08/26 07:54:30;;;;;;;20.98;3.20;;;36.50;45.50;;;;;;5066510;28;20032;-82
2022/08/26 07:56:56;;;;;;;14.40;3.08;;;36.30;45.50;;;;;;5067614;28;20024;-81
2022/08/26 07:59:23;;;;;;;18.00;2.75;;;36.30;46.10;;;;;;5066248;28;20024;-82
2022/08/26 08:01:49;;;;;;;11.10;2.70;;;36.40;46.60;;;;;;5065183;28;20029;-81
2022/08/26 08:04:16;;;;;;;9.13;2.63;;;36.50;46.50;;;;;;5067339;28;20530;-81
2022/08/26 08:06:43;;;;;;;15.65;3.22;;;36.90;45.80;;;;;;5065446;28;20139;-82
2022/08/26 08:09:10;;;;;;;11.10;2.80;;;37.30;44.80;;;;;;5065812;28;20119;-81
2022/08/26 08:11:36;;;;;;;12.50;3.38;;;37.10;44.70;;;;;;5067608;28;20028;-82
2022/08/26 08:14:02;;;;;;;12.98;3.13;;;37.20;45.10;;;;;;5067209;28;20028;-82
2022/08/26 08:16:28;;;;;;;17.35;3.00;;;37.30;44.60;;;;;;5065515;28;20546;-81
2022/08/26 08:18:55;;;;;;;15.73;3.03;;;37.40;44.50;;;;;;5066986;28;20029;-81
2022/08/26 08:21:24;;;;;;;17.70;2.92;;;37.50;43.80;;;;;;5065885;28;20020;-82
2022/08/26 08:23:55;;;;;;;14.82;2.90;;;37.60;43.50;;;;;;5067354;28;20111;-81
2022/08/26 08:26:22;;;;;;;9.75;2.78;;;37.70;43.80;;;;;;5065145;28;20060;-81
2022/08/26 08:28:49;;;;;;;7.25;2.33;;;38.00;42.50;;;;;;5067104;28;20062;-80
2022/08/26 08:31:26;;;;;;;15.07;3.33;;;37.90;43.40;;;;;;5066525;28;20070;-81
2022/08/26 08:33:52;;;;;;;11.98;3.05;;;37.90;43.40;;;;;;5065358;28;20049;-82
2022/08/26 08:36:18;;;;;;;14.38;3.28;;;38.10;43.40;;;;;;5064796;28;20033;-82
2022/08/26 08:38:44;;;;;;;7.50;2.72;;;38.30;43.10;;;;;;5065807;28;20472;-82
2022/08/26 08:41:30;;;;;;;21.83;3.00;;;38.50;42.70;;;;;;5066837;28;20711;-80
2022/08/26 08:44:00;;;;;;;12.82;3.08;;;38.30;41.50;;;;;;5064432;28;20045;-82
2022/08/26 08:46:28;;;;;;;27.58;3.83;;;38.30;42.50;;;;;;5064277;28;20032;-82
2022/08/26 08:48:58;;;;;;;18.42;2.67;;;37.90;41.60;;;;;;5064185;28;20074;-82
2022/08/26 08:51:41;;;;;;;15.27;2.80;;;37.70;44.00;;;;;;5064667;28;20070;-81
2022/08/26 08:54:07;;;;;;;15.32;2.90;;;37.90;42.70;;;;;;5063339;28;20515;-82
2022/08/26 08:56:47;;;;;;;13.48;3.40;;;38.10;42.20;;;;;;5065031;28;20036;-83
2022/08/26 08:59:22;;;;;;;13.90;3.47;;;38.10;41.70;;;;;;5065531;28;20381;-82
2022/08/26 09:01:51;;;;;;;13.45;3.38;;;38.20;41.40;;;;;;5066063;28;20705;-82
2022/08/26 09:04:50;;;;;;;24.95;3.05;;;38.20;40.60;;;;;;5065102;28;20024;-82
2022/08/26 09:07:39;;;;;;;16.27;3.03;;;38.20;41.00;;;;;;5064848;28;20048;-82
2022/08/26 09:10:20;;;;;;;10.35;3.03;;;38.40;42.20;;;;;;5079897;28;20516;-81
2022/08/26 09:12:46;;;;;;;17.73;3.95;;;39.10;41.60;;;;;;5064469;28;20027;-82
2022/08/26 09:15:25;;;;;;;15.35;3.20;;;39.50;40.70;;;;;;5064384;28;20035;-82
2022/08/26 09:17:53;;;;;;;18.73;3.25;;;39.60;39.70;;;;;;5065253;28;20090;-81
2022/08/26 09:20:28;;;;;;;19.00;3.28;;;39.30;38.40;;;;;;5070237;28;20044;-82
2022/08/26 09:22:55;;;;;;;;;;;39.30;40.50;;;;;;5069281;28;20447;-82
2022/08/26 09:25:20;;;;;;;16.55;2.92;;;39.50;38.90;;;;;;5068978;28;19904;-82
2022/08/26 09:27:49;;;;;;;13.50;2.95;;;39.50;39.80;;;;;;5070565;28;20016;-82
2022/08/26 09:30:20;;;;;;;14.40;2.92;;;39.60;40.30;;;;;;5068166;28;20020;-82
2022/08/26 09:33:02;;;;;;;10.63;3.28;;;39.80;39.40;;;;;;5068979;28;20055;-81
2022/08/26 09:35:45;;;;;;;18.58;2.97;;;40.10;37.90;;;;;;5070308;28;20052;-81
2022/08/26 09:38:23;;;;;;;13.45;2.55;;;40.40;37.50;;;;;;5067878;28;20036;-83
2022/08/26 09:41:32;;;;;;;14.73;2.40;;;40.50;38.40;;;;;;5070150;28;20366;-83
2022/08/26 09:44:16;;;;;;;25.98;3.67;;;40.60;36.30;;;;;;5068102;28;20099;-82
2022/08/26 09:46:58;;;;;;;16.88;3.70;;;40.30;36.40;;;;;;5068160;28;20020;-83
2022/08/26 09:49:23;;;;;;;12.90;3.83;;;40.10;37.50;;;;;;5066265;28;20401;-82
2022/08/26 09:52:07;;;;;;;16.73;2.95;;;39.90;38.00;;;;;;5069159;28;20035;-82
2022/08/26 09:54:33;;;;;;;15.00;2.95;;;40.00;36.50;;;;;;5068579;28;20027;-82
2022/08/26 09:57:24;;;;;;;13.10;3.20;;;39.90;38.40;;;;;;5069256;28;20036;-82
2022/08/26 09:59:50;;;;;;;16.50;2.80;;;40.00;38.00;;;;;;5068059;28;20016;-82
2022/08/26 10:02:32;;;;;;;15.93;2.92;;;39.80;37.90;;;;;;5068276;28;20078;-81
2022/08/26 10:05:00;;;;;;;13.90;3.03;;;40.40;38.20;;;;;;5067903;28;20120;-82
2022/08/26 10:07:43;;;;;;;12.32;3.47;;;40.50;36.70;;;;;;5068452;28;20028;-82
2022/08/26 10:10:23;;;;;;;17.13;3.40;;;40.60;36.40;;;;;;5067932;28;20029;-83
2022/08/26 10:13:10;;;;;;;13.70;3.05;;;40.50;37.30;;;;;;5068319;28;20032;-81
2022/08/26 10:15:59;;;;;;;12.48;2.53;;;40.50;37.10;;;;;;5069777;28;20025;-82
2022/08/26 10:18:48;;;;;;;26.75;3.50;;;40.40;37.90;;;;;;5067985;28;20039;-82
2022/08/26 10:21:17;;;;;;;20.45;3.33;;;40.00;38.00;;;;;;5067419;28;20646;-82
2022/08/26 10:23:48;;;;;;;14.02;3.17;;;39.60;38.10;;;;;;5069549;28;20060;-81
2022/08/26 10:26:19;;;;;;;20.52;3.50;;;39.00;36.20;;;;;;5067748;28;20029;-81
2022/08/26 10:28:51;;;;;;;13.77;3.45;;;38.10;36.70;;;;;;5067973;28;20028;-82
2022/08/26 10:31:39;;;;;;;28.20;3.40;;;36.90;37.90;;;;;;5068073;28;20032;-83
2022/08/26 10:34:05;;;;;;;16.42;3.58;;;36.50;38.90;;;;;;5069943;28;20025;-81
2022/08/26 10:36:49;;;;;;;10.55;3.20;;;36.20;39.60;;;;;;5067900;28;20036;-82
2022/08/26 10:39:38;;;;;;;31.88;4.03;;;35.80;40.00;;;;;;5068540;28;20021;-81
2022/08/26 10:42:08;;;;;;;9.45;3.00;;;35.40;39.50;;;;;;5068253;28;20123;-81
2022/08/26 10:44:37;;;;;;;20.80;3.53;;;35.10;40.40;;;;;;5068214;28;20024;-82
2022/08/26 10:47:13;;;;;;;15.15;3.65;;;34.70;40.80;;;;;;5067386;28;20020;-82
2022/08/26 10:49:41;;;;;;;20.05;3.88;;;34.60;41.80;;;;;;5068093;28;20124;-81
2022/08/26 10:52:27;;;;;;;19.55;3.33;;;34.50;42.00;;;;;;5069606;28;20012;-81
2022/08/26 10:54:56;;;;;;;12.63;3.85;;;34.60;43.80;;;;;;5067654;28;20074;-82
2022/08/26 10:57:45;;;;;;;21.73;3.67;;;34.70;41.70;;;;;;5067914;28;20032;-82
2022/08/26 11:03:21;;;;;;;13.05;3.30;;;34.20;42.20;;;;;;5065592;28;20114;-84
2022/08/26 11:06:29;;;;;;;15.93;3.30;;;33.70;41.60;;;;;;5081256;28;20241;-83
2022/08/26 11:08:58;;;;;;;23.42;3.45;;;33.60;42.90;;;;;;5063832;28;20033;-83
2022/08/26 11:11:38;;;;;;;22.30;4.07;;;33.60;43.00;;;;;;5068634;28;20050;-84
2022/08/26 11:14:29;;;;;;;15.27;2.97;;;33.50;44.20;;;;;;5064442;28;20043;-83
2022/08/26 11:16:56;;;;;;;14.32;3.63;;;33.40;43.70;;;;;;5068920;28;20072;-83
2022/08/26 11:19:40;;;;;;;14.73;3.85;;;33.50;44.90;;;;;;5067309;28;20493;-83
2022/08/26 11:22:24;;;;;;;16.50;2.85;;;33.60;45.90;;;;;;5067498;28;20436;-84
2022/08/26 11:24:56;;;;;;;22.58;3.05;;;33.80;45.10;;;;;;5067202;28;20048;-82
2022/08/26 11:27:24;;;;;;;10.80;3.22;;;33.90;43.60;;;;;;5066861;28;20527;-84
2022/08/26 11:29:56;;;;;;;13.35;3.05;;;33.90;43.60;;;;;;5063602;28;20072;-83
2022/08/26 11:32:44;;;;;;;10.05;2.78;;;33.90;43.30;;;;;;5066356;28;20509;-83
2022/08/26 11:35:30;;;;;;;23.48;4.15;;;33.90;43.10;;;;;;5053638;28;20043;-84
2022/08/26 11:38:00;;;;;;;13.82;3.58;;;34.00;44.00;;;;;;5067862;28;20082;-83
2022/08/26 11:40:28;;;;;;;24.83;3.67;;;34.10;44.60;;;;;;5067720;28;20024;-83
2022/08/26 11:43:19;;;;;;;12.55;3.25;;;34.20;44.20;;;;;;5066665;28;20396;-82
2022/08/26 11:45:48;;;;;;;11.82;3.10;;;34.20;44.50;;;;;;5066089;28;20151;-83
2022/08/26 11:48:29;;;;;;;13.40;2.72;;;34.30;44.10;;;;;;5068514;28;20032;-83
2022/08/26 11:51:05;;;;;;;15.52;3.28;;;34.40;43.70;;;;;;5047651;28;20460;-88
2022/08/26 11:53:36;;;;;;;25.10;3.45;;;34.40;44.20;;;;;;5062682;28;20103;-83
2022/08/26 11:56:10;;;;;;;12.60;3.05;;;34.40;44.60;;;;;;5067281;28;20098;-84
2022/08/26 11:58:43;;;;;;;18.50;3.63;;;34.50;45.10;;;;;;5067770;28;20032;-84
2022/08/26 12:01:12;;;;;;;20.60;3.67;;;34.40;42.60;;;;;;5069117;28;20020;-83
2022/08/26 12:03:44;;;;;;;14.70;3.20;;;34.30;43.50;;;;;;5068492;28;20402;-85
2022/08/26 12:06:22;;;;;;;14.38;3.30;;;34.10;44.40;;;;;;5068148;28;20025;-84
2022/08/26 12:08:49;;;;;;;25.67;5.05;;;34.00;43.70;;;;;;5067769;28;20064;-84
2022/08/26 12:11:27;;;;;;;15.93;3.17;;;33.80;43.40;;;;;;5067712;28;20025;-84
2022/08/26 12:14:05;;;;;;;16.33;3.38;;;33.70;43.30;;;;;;5067035;28;20599;-84
2022/08/26 12:16:37;;;;;;;25.33;4.00;;;33.60;45.10;;;;;;5067308;28;20147;-84
2022/08/26 12:19:26;;;;;;;24.95;3.92;;;33.60;44.50;;;;;;5067420;28;20079;-85
2022/08/26 12:22:25;;;;;;;19.17;3.33;;;33.70;44.30;;;;;;5067171;28;20067;-84
2022/08/26 12:24:57;;;;;;;22.40;2.85;;;33.80;44.00;;;;;;5073319;28;20024;-84
2022/08/26 12:27:26;;;;;;;11.95;3.05;;;33.60;43.90;;;;;;5087052;28;20020;-84
2022/08/26 12:30:12;;;;;;;18.48;3.72;;;33.50;44.10;;;;;;5078834;28;20369;-85
2022/08/26 12:32:43;;;;;;;19.05;3.88;;;33.60;45.50;;;;;;5067113;28;20040;-84
2022/08/26 12:35:11;;;;;;;11.60;3.13;;;33.60;44.60;;;;;;5067414;28;20032;-85
2022/08/26 12:37:41;;;;;;;11.15;2.80;;;33.60;45.50;;;;;;5066839;28;20043;-84
2022/08/26 12:40:29;;;;;;;11.95;3.78;;;33.60;45.70;;;;;;5067626;28;20107;-86
2022/08/26 12:42:55;;;;;;;20.25;5.07;;;33.60;43.90;;;;;;5067115;28;20036;-84
2022/08/26 12:45:30;;;;;;;19.77;4.00;;;33.60;45.00;;;;;;5067157;28;20020;-84
2022/08/26 12:48:12;;;;;;;13.73;3.30;;;33.50;44.40;;;;;;5066941;28;20033;-85
2022/08/26 12:50:46;;;;;;;17.58;3.35;;;33.40;44.30;;;;;;5067200;28;20036;-83
2022/08/26 12:53:11;;;;;;;16.30;3.47;;;33.40;44.50;;;;;;5066900;28;20077;-85
2022/08/26 12:55:48;;;;;;;9.40;2.88;;;33.40;43.80;;;;;;5066905;28;20119;-85
2022/08/26 12:58:24;;;;;;;22.33;3.08;;;33.40;44.60;;;;;;5067192;28;20515;-85
2022/08/26 13:01:15;;;;;;;22.00;3.35;;;33.40;43.80;;;;;;5067395;28;20063;-84
2022/08/26 13:03:43;;;;;;;14.63;3.75;;;33.50;45.00;;;;;;5059764;28;20985;-84
2022/08/26 13:06:21;;;;;;;16.98;3.10;;;33.60;45.60;;;;;;5067502;28;20036;-83